sensor_id;sensor_type;location;lat;lon;timestamp;pressure;altitude;pressure_sealevel;temperature;humidity
59417;BME280;45222;52.458;20.914;2022-09-03T00:00:26;101341.39;;;8.11;75.73
59417;BME280;45222;52.458;20.914;2022-09-03T00:03:44;101340.69;;;8.11;75.87
59417;BME280;45222;52.458;20.914;2022-09-03T00:06:51;101341.63;;;8.08;76.38
59417;BME280;45222;52.458;20.914;2022-09-03T00:10:02;101344.27;;;8.09;76.35
59417;BME280;45222;52.458;20.914;2022-09-03T00:13:07;101346.27;;;8.07;76.01
59417;BME280;45222;52.458;20.914;2022-09-03T00:16:14;101341.61;;;8.01;76.04
59417;BME280;45222;52.458;20.914;2022-09-03T00:19:23;101343.87;;;7.95;75.79
59417;BME280;45222;52.458;20.914;2022-09-03T00:22:31;101345.91;;;7.91;75.77
59417;BME280;45222;52.458;20.914;2022-09-03T00:25:38;101343.65;;;7.89;76.05
59417;BME280;45222;52.458;20.914;2022-09-03T00:28:46;101343.19;;;7.86;76.39
59417;BME280;45222;52.458;20.914;2022-09-03T00:31:53;101340.30;;;7.87;76.52
59417;BME280;45222;52.458;20.914;2022-09-03T00:35:01;101342.06;;;7.89;76.47
59417;BME280;45222;52.458;20.914;2022-09-03T00:38:05;101340.11;;;7.89;76.08
59417;BME280;45222;52.458;20.914;2022-09-03T00:41:18;101345.99;;;7.87;75.81
59417;BME280;45222;52.458;20.914;2022-09-03T00:44:40;101344.71;;;7.80;75.84
59417;BME280;45222;52.458;20.914;2022-09-03T00:48:05;101342.75;;;7.73;75.68
59417;BME280;45222;52.458;20.914;2022-09-03T00:51:22;101346.21;;;7.68;76.16
59417;BME280;45222;52.458;20.914;2022-09-03T00:54:38;101345.51;;;7.68;76.91
59417;BME280;45222;52.458;20.914;2022-09-03T00:58:01;101345.45;;;7.71;76.94
59417;BME280;45222;52.458;20.914;2022-09-03T01:01:16;101351.00;;;7.76;77.09
59417;BME280;45222;52.458;20.914;2022-09-03T01:04:32;101352.71;;;7.79;76.76
59417;BME280;45222;52.458;20.914;2022-09-03T01:07:43;101354.36;;;7.76;76.67
59417;BME280;45222;52.458;20.914;2022-09-03T01:10:55;101355.20;;;7.70;76.55
59417;BME280;45222;52.458;20.914;2022-09-03T01:14:06;101354.95;;;7.65;76.55
59417;BME280;45222;52.458;20.914;2022-09-03T01:17:19;101355.00;;;7.62;76.77
59417;BME280;45222;52.458;20.914;2022-09-03T01:20:34;101350.77;;;7.61;77.29
59417;BME280;45222;52.458;20.914;2022-09-03T01:24:03;101346.34;;;7.62;77.27
59417;BME280;45222;52.458;20.914;2022-09-03T01:27:22;101347.33;;;7.65;77.25
59417;BME280;45222;52.458;20.914;2022-09-03T01:30:39;101343.97;;;7.65;77.23
59417;BME280;45222;52.458;20.914;2022-09-03T01:34:07;101339.74;;;7.65;76.96
59417;BME280;45222;52.458;20.914;2022-09-03T01:37:26;101346.20;;;7.60;76.93
59417;BME280;45222;52.458;20.914;2022-09-03T01:40:48;101350.49;;;7.58;76.96
59417;BME280;45222;52.458;20.914;2022-09-03T01:44:07;101348.38;;;7.57;77.48
59417;BME280;45222;52.458;20.914;2022-09-03T01:47:17;101344.10;;;7.50;77.64
59417;BME280;45222;52.458;20.914;2022-09-03T01:50:35;101346.59;;;7.40;77.70
59417;BME280;45222;52.458;20.914;2022-09-03T01:57:41;101340.94;;;7.21;78.42
59417;BME280;45222;52.458;20.914;2022-09-03T02:00:54;101346.94;;;7.22;78.64
59417;BME280;45222;52.458;20.914;2022-09-03T02:04:01;101344.17;;;7.29;78.80
59417;BME280;45222;52.458;20.914;2022-09-03T02:07:04;101338.96;;;7.33;78.40
59417;BME280;45222;52.458;20.914;2022-09-03T02:10:11;101338.79;;;7.33;77.92
59417;BME280;45222;52.458;20.914;2022-09-03T02:13:17;101335.84;;;7.29;77.83
59417;BME280;45222;52.458;20.914;2022-09-03T02:16:22;101333.45;;;7.24;77.63
59417;BME280;45222;52.458;20.914;2022-09-03T02:19:27;101330.41;;;7.17;77.46
59417;BME280;45222;52.458;20.914;2022-09-03T02:22:31;101330.00;;;7.11;77.73
59417;BME280;45222;52.458;20.914;2022-09-03T02:25:36;101333.94;;;7.08;78.10
59417;BME280;45222;52.458;20.914;2022-09-03T02:28:41;101334.05;;;7.11;78.04
59417;BME280;45222;52.458;20.914;2022-09-03T02:31:48;101336.15;;;7.12;77.87
59417;BME280;45222;52.458;20.914;2022-09-03T02:34:54;101331.04;;;7.11;77.65
59417;BME280;45222;52.458;20.914;2022-09-03T02:37:56;101333.05;;;7.08;77.44
59417;BME280;45222;52.458;20.914;2022-09-03T02:41:11;101334.52;;;7.05;77.22
59417;BME280;45222;52.458;20.914;2022-09-03T02:44:19;101335.64;;;7.02;77.45
59417;BME280;45222;52.458;20.914;2022-09-03T02:47:30;101334.29;;;6.98;77.69
59417;BME280;45222;52.458;20.914;2022-09-03T02:50:40;101338.00;;;6.99;78.13
59417;BME280;45222;52.458;20.914;2022-09-03T02:53:43;101335.85;;;7.00;78.27
59417;BME280;45222;52.458;20.914;2022-09-03T02:56:46;101333.74;;;6.99;78.20
59417;BME280;45222;52.458;20.914;2022-09-03T02:59:50;101330.63;;;6.95;77.91
59417;BME280;45222;52.458;20.914;2022-09-03T03:02:54;101327.59;;;6.87;78.20
59417;BME280;45222;52.458;20.914;2022-09-03T03:05:59;101328.46;;;6.78;78.42
59417;BME280;45222;52.458;20.914;2022-09-03T03:09:03;101323.64;;;6.70;78.76
59417;BME280;45222;52.458;20.914;2022-09-03T03:12:07;101323.77;;;6.63;79.13
59417;BME280;45222;52.458;20.914;2022-09-03T03:15:11;101322.73;;;6.62;79.66
59417;BME280;45222;52.458;20.914;2022-09-03T03:18:14;101327.08;;;6.66;79.82
59417;BME280;45222;52.458;20.914;2022-09-03T03:21:18;101327.02;;;6.69;79.84
59417;BME280;45222;52.458;20.914;2022-09-03T03:24:21;101333.86;;;6.72;79.37
59417;BME280;45222;52.458;20.914;2022-09-03T03:27:24;101337.54;;;6.74;79.23
59417;BME280;45222;52.458;20.914;2022-09-03T03:30:27;101335.74;;;6.76;79.03
59417;BME280;45222;52.458;20.914;2022-09-03T03:33:29;101340.15;;;6.77;78.95
59417;BME280;45222;52.458;20.914;2022-09-03T03:36:33;101341.91;;;6.77;79.15
59417;BME280;45222;52.458;20.914;2022-09-03T03:39:36;101342.80;;;6.77;79.12
59417;BME280;45222;52.458;20.914;2022-09-03T03:42:38;101348.65;;;6.76;79.02
59417;BME280;45222;52.458;20.914;2022-09-03T03:45:41;101350.09;;;6.74;79.08
59417;BME280;45222;52.458;20.914;2022-09-03T03:48:47;101352.44;;;6.71;78.66
59417;BME280;45222;52.458;20.914;2022-09-03T03:51:50;101354.14;;;6.64;78.86
59417;BME280;45222;52.458;20.914;2022-09-03T03:54:53;101354.79;;;6.57;79.59
59417;BME280;45222;52.458;20.914;2022-09-03T03:57:58;101358.11;;;6.59;79.85
59417;BME280;45222;52.458;20.914;2022-09-03T04:01:05;101355.91;;;6.65;79.84
59417;BME280;45222;52.458;20.914;2022-09-03T04:04:08;101353.73;;;6.68;79.69
59417;BME280;45222;52.458;20.914;2022-09-03T04:07:11;101352.25;;;6.72;79.44
59417;BME280;45222;52.458;20.914;2022-09-03T04:10:14;101350.98;;;6.73;79.15
59417;BME280;45222;52.458;20.914;2022-09-03T04:13:17;101354.46;;;6.77;79.53
59417;BME280;45222;52.458;20.914;2022-09-03T04:16:21;101352.47;;;6.80;79.48
59417;BME280;45222;52.458;20.914;2022-09-03T04:19:24;101350.61;;;6.85;79.75
59417;BME280;45222;52.458;20.914;2022-09-03T04:22:30;101348.02;;;6.91;79.58
59417;BME280;45222;52.458;20.914;2022-09-03T04:25:33;101349.71;;;6.96;79.57
59417;BME280;45222;52.458;20.914;2022-09-03T04:28:36;101356.04;;;6.98;79.02
59417;BME280;45222;52.458;20.914;2022-09-03T04:31:39;101360.49;;;6.97;78.54
59417;BME280;45222;52.458;20.914;2022-09-03T04:35:01;101361.95;;;6.93;78.77
59417;BME280;45222;52.458;20.914;2022-09-03T04:38:04;101363.88;;;6.95;78.96
59417;BME280;45222;52.458;20.914;2022-09-03T04:41:09;101364.32;;;7.00;78.96
59417;BME280;45222;52.458;20.914;2022-09-03T04:44:12;101364.04;;;7.07;78.94
59417;BME280;45222;52.458;20.914;2022-09-03T04:47:15;101362.63;;;7.16;79.02
59417;BME280;45222;52.458;20.914;2022-09-03T04:50:18;101365.47;;;7.25;78.70
59417;BME280;45222;52.458;20.914;2022-09-03T04:53:21;101366.74;;;7.33;78.67
59417;BME280;45222;52.458;20.914;2022-09-03T04:56:25;101366.42;;;7.40;79.14
59417;BME280;45222;52.458;20.914;2022-09-03T04:59:28;101367.52;;;7.47;79.76
59417;BME280;45222;52.458;20.914;2022-09-03T05:02:31;101369.88;;;7.54;80.20
59417;BME280;45222;52.458;20.914;2022-09-03T05:05:33;101361.11;;;7.66;80.58
59417;BME280;45222;52.458;20.914;2022-09-03T05:08:46;101363.13;;;7.81;81.52
59417;BME280;45222;52.458;20.914;2022-09-03T05:11:53;101365.39;;;7.99;81.39
59417;BME280;45222;52.458;20.914;2022-09-03T05:14:56;101368.58;;;8.15;81.23
59417;BME280;45222;52.458;20.914;2022-09-03T05:17:59;101366.10;;;8.31;80.96
59417;BME280;45222;52.458;20.914;2022-09-03T05:21:05;101367.27;;;8.50;80.91
59417;BME280;45222;52.458;20.914;2022-09-03T05:24:09;101375.98;;;8.71;80.88
59417;BME280;45222;52.458;20.914;2022-09-03T05:27:12;101376.41;;;8.91;80.61
59417;BME280;45222;52.458;20.914;2022-09-03T05:30:18;101381.42;;;9.09;80.21
59417;BME280;45222;52.458;20.914;2022-09-03T05:33:23;101383.39;;;9.29;79.87
59417;BME280;45222;52.458;20.914;2022-09-03T05:36:28;101393.27;;;9.45;79.52
59417;BME280;45222;52.458;20.914;2022-09-03T05:39:31;101399.96;;;9.60;79.27
59417;BME280;45222;52.458;20.914;2022-09-03T05:42:33;101396.66;;;9.76;79.36
59417;BME280;45222;52.458;20.914;2022-09-03T05:45:40;101385.86;;;9.93;78.64
59417;BME280;45222;52.458;20.914;2022-09-03T05:48:43;101384.38;;;10.07;77.93
59417;BME280;45222;52.458;20.914;2022-09-03T05:51:45;101389.65;;;10.21;77.83
59417;BME280;45222;52.458;20.914;2022-09-03T05:54:48;101386.70;;;10.36;77.25
59417;BME280;45222;52.458;20.914;2022-09-03T05:57:51;101381.30;;;10.50;76.54
59417;BME280;45222;52.458;20.914;2022-09-03T06:00:54;101379.00;;;10.66;76.08
59417;BME280;45222;52.458;20.914;2022-09-03T06:03:58;101377.37;;;10.84;75.99
59417;BME280;45222;52.458;20.914;2022-09-03T06:07:01;101373.45;;;11.00;74.79
59417;BME280;45222;52.458;20.914;2022-09-03T06:10:05;101377.52;;;11.16;74.25
59417;BME280;45222;52.458;20.914;2022-09-03T06:13:09;101374.61;;;11.28;72.39
59417;BME280;45222;52.458;20.914;2022-09-03T06:16:12;101374.84;;;11.41;71.97
59417;BME280;45222;52.458;20.914;2022-09-03T06:19:16;101377.46;;;11.53;71.71
59417;BME280;45222;52.458;20.914;2022-09-03T06:22:18;101380.61;;;11.64;71.47
59417;BME280;45222;52.458;20.914;2022-09-03T06:25:21;101374.04;;;11.78;71.47
59417;BME280;45222;52.458;20.914;2022-09-03T06:28:24;101369.38;;;11.93;70.39
59417;BME280;45222;52.458;20.914;2022-09-03T06:31:28;101365.95;;;12.04;69.54
59417;BME280;45222;52.458;20.914;2022-09-03T06:34:30;101365.44;;;12.13;69.32
59417;BME280;45222;52.458;20.914;2022-09-03T06:37:38;101367.38;;;12.23;68.90
59417;BME280;45222;52.458;20.914;2022-09-03T06:40:41;101370.69;;;12.34;68.69
59417;BME280;45222;52.458;20.914;2022-09-03T06:43:44;101371.35;;;12.44;68.77
59417;BME280;45222;52.458;20.914;2022-09-03T06:46:47;101372.67;;;12.56;68.14
59417;BME280;45222;52.458;20.914;2022-09-03T06:49:52;101370.60;;;12.63;67.67
59417;BME280;45222;52.458;20.914;2022-09-03T06:52:54;101366.08;;;12.73;67.65
59417;BME280;45222;52.458;20.914;2022-09-03T06:55:59;101369.98;;;12.87;67.84
59417;BME280;45222;52.458;20.914;2022-09-03T06:59:06;101370.42;;;13.02;67.08
59417;BME280;45222;52.458;20.914;2022-09-03T07:02:09;101367.04;;;13.14;66.20
59417;BME280;45222;52.458;20.914;2022-09-03T07:05:12;101361.48;;;13.23;65.42
59417;BME280;45222;52.458;20.914;2022-09-03T07:08:14;101363.81;;;13.31;64.96
59417;BME280;45222;52.458;20.914;2022-09-03T07:11:19;101359.95;;;13.41;65.60
59417;BME280;45222;52.458;20.914;2022-09-03T07:14:23;101365.21;;;13.56;65.48
59417;BME280;45222;52.458;20.914;2022-09-03T07:17:26;101361.72;;;13.70;64.78
59417;BME280;45222;52.458;20.914;2022-09-03T07:20:29;101362.05;;;13.86;64.53
59417;BME280;45222;52.458;20.914;2022-09-03T07:23:32;101362.20;;;14.02;64.41
59417;BME280;45222;52.458;20.914;2022-09-03T07:26:37;101363.56;;;14.19;63.97
59417;BME280;45222;52.458;20.914;2022-09-03T07:29:40;101365.79;;;14.36;63.73
59417;BME280;45222;52.458;20.914;2022-09-03T07:32:43;101367.39;;;14.51;62.51
59417;BME280;45222;52.458;20.914;2022-09-03T07:35:47;101365.05;;;14.63;61.96
59417;BME280;45222;52.458;20.914;2022-09-03T07:38:53;101369.23;;;14.80;62.31
59417;BME280;45222;52.458;20.914;2022-09-03T07:41:56;101372.51;;;14.97;61.73
59417;BME280;45222;52.458;20.914;2022-09-03T07:44:59;101374.88;;;15.10;60.69
59417;BME280;45222;52.458;20.914;2022-09-03T07:48:02;101375.82;;;15.23;60.91
59417;BME280;45222;52.458;20.914;2022-09-03T07:51:06;101378.23;;;15.38;60.22
59417;BME280;45222;52.458;20.914;2022-09-03T07:54:09;101378.18;;;15.53;59.09
59417;BME280;45222;52.458;20.914;2022-09-03T07:57:12;101374.73;;;15.67;58.86
59417;BME280;45222;52.458;20.914;2022-09-03T08:00:15;101373.75;;;15.76;58.48
59417;BME280;45222;52.458;20.914;2022-09-03T08:03:19;101372.44;;;15.87;58.05
59417;BME280;45222;52.458;20.914;2022-09-03T08:06:23;101372.88;;;15.99;57.36
59417;BME280;45222;52.458;20.914;2022-09-03T08:09:26;101373.70;;;16.17;57.04
59417;BME280;45222;52.458;20.914;2022-09-03T08:12:29;101372.39;;;16.30;55.50
59417;BME280;45222;52.458;20.914;2022-09-03T08:15:33;101370.13;;;16.42;54.81
59417;BME280;45222;52.458;20.914;2022-09-03T08:18:36;101366.95;;;16.57;53.36
59417;BME280;45222;52.458;20.914;2022-09-03T08:21:39;101369.02;;;16.77;54.30
59417;BME280;45222;52.458;20.914;2022-09-03T08:24:42;101372.30;;;16.97;53.09
59417;BME280;45222;52.458;20.914;2022-09-03T08:27:46;101371.02;;;17.11;51.88
59417;BME280;45222;52.458;20.914;2022-09-03T08:30:51;101368.44;;;17.21;51.47
59417;BME280;45222;52.458;20.914;2022-09-03T08:34:05;101372.52;;;17.33;52.18
59417;BME280;45222;52.458;20.914;2022-09-03T08:37:10;101370.40;;;17.48;51.20
59417;BME280;45222;52.458;20.914;2022-09-03T08:40:14;101368.67;;;17.61;50.38
59417;BME280;45222;52.458;20.914;2022-09-03T08:43:17;101367.81;;;17.84;49.65
59417;BME280;45222;52.458;20.914;2022-09-03T08:46:24;101366.02;;;18.09;47.38
59417;BME280;45222;52.458;20.914;2022-09-03T08:49:32;101360.20;;;18.24;45.21
59417;BME280;45222;52.458;20.914;2022-09-03T08:52:39;101356.16;;;18.37;44.95
59417;BME280;45222;52.458;20.914;2022-09-03T08:55:50;101351.11;;;18.45;45.12
59417;BME280;45222;52.458;20.914;2022-09-03T08:58:54;101351.04;;;18.62;46.49
59417;BME280;45222;52.458;20.914;2022-09-03T09:02:07;101353.02;;;18.84;44.85
59417;BME280;45222;52.458;20.914;2022-09-03T09:05:20;101347.57;;;18.98;43.96
59417;BME280;45222;52.458;20.914;2022-09-03T09:08:31;101346.60;;;19.13;43.53
59417;BME280;45222;52.458;20.914;2022-09-03T09:11:47;101342.54;;;19.17;42.14
59417;BME280;45222;52.458;20.914;2022-09-03T09:15:05;101341.55;;;19.18;42.12
59417;BME280;45222;52.458;20.914;2022-09-03T09:18:13;101335.55;;;19.26;41.63
59417;BME280;45222;52.458;20.914;2022-09-03T09:21:25;101336.91;;;19.40;42.90
59417;BME280;45222;52.458;20.914;2022-09-03T09:24:38;101334.86;;;19.62;42.02
59417;BME280;45222;52.458;20.914;2022-09-03T09:27:58;101330.56;;;19.82;40.41
59417;BME280;45222;52.458;20.914;2022-09-03T09:31:03;101329.80;;;19.90;40.14
59417;BME280;45222;52.458;20.914;2022-09-03T09:34:08;101324.63;;;19.94;40.30
59417;BME280;45222;52.458;20.914;2022-09-03T09:37:13;101325.55;;;20.06;39.85
59417;BME280;45222;52.458;20.914;2022-09-03T09:40:28;101328.21;;;20.20;39.01
59417;BME280;45222;52.458;20.914;2022-09-03T09:43:36;101328.18;;;20.30;39.69
59417;BME280;45222;52.458;20.914;2022-09-03T09:46:40;101328.85;;;20.45;40.21
59417;BME280;45222;52.458;20.914;2022-09-03T09:49:52;101324.05;;;20.59;39.42
59417;BME280;45222;52.458;20.914;2022-09-03T09:53:02;101320.50;;;20.74;39.69
59417;BME280;45222;52.458;20.914;2022-09-03T09:56:20;101322.59;;;20.97;40.38
59417;BME280;45222;52.458;20.914;2022-09-03T09:59:22;101326.03;;;21.16;39.81
59417;BME280;45222;52.458;20.914;2022-09-03T10:02:26;101322.52;;;21.31;39.14
59417;BME280;45222;52.458;20.914;2022-09-03T10:05:31;101317.42;;;21.43;38.74
59417;BME280;45222;52.458;20.914;2022-09-03T10:08:34;101320.70;;;21.56;38.23
59417;BME280;45222;52.458;20.914;2022-09-03T10:11:39;101320.80;;;21.62;37.61
59417;BME280;45222;52.458;20.914;2022-09-03T10:14:49;101318.85;;;21.61;37.29
59417;BME280;45222;52.458;20.914;2022-09-03T10:18:09;101314.48;;;21.45;36.09
59417;BME280;45222;52.458;20.914;2022-09-03T10:21:21;101310.60;;;21.44;36.42
59417;BME280;45222;52.458;20.914;2022-09-03T10:24:36;101307.77;;;21.59;37.10
59417;BME280;45222;52.458;20.914;2022-09-03T10:27:41;101304.19;;;21.82;36.72
59417;BME280;45222;52.458;20.914;2022-09-03T10:30:59;101300.56;;;21.95;36.01
59417;BME280;45222;52.458;20.914;2022-09-03T10:34:09;101297.88;;;21.97;35.65
59417;BME280;45222;52.458;20.914;2022-09-03T10:37:20;101290.68;;;21.88;35.49
59417;BME280;45222;52.458;20.914;2022-09-03T10:40:39;101289.92;;;21.95;35.75
59417;BME280;45222;52.458;20.914;2022-09-03T10:48:04;101285.84;;;22.07;36.27
59417;BME280;45222;52.458;20.914;2022-09-03T10:51:17;101281.42;;;22.34;36.82
59417;BME280;45222;52.458;20.914;2022-09-03T10:54:42;101281.73;;;22.66;36.32
59417;BME280;45222;52.458;20.914;2022-09-03T10:57:53;101278.31;;;22.80;35.29
59417;BME280;45222;52.458;20.914;2022-09-03T11:01:04;101277.65;;;22.81;34.51
59417;BME280;45222;52.458;20.914;2022-09-03T11:04:23;101271.65;;;22.79;34.23
59417;BME280;45222;52.458;20.914;2022-09-03T11:07:33;101271.30;;;22.88;34.22
59417;BME280;45222;52.458;20.914;2022-09-03T11:10:42;101265.88;;;22.96;34.45
59417;BME280;45222;52.458;20.914;2022-09-03T11:13:49;101265.68;;;23.11;34.14
59417;BME280;45222;52.458;20.914;2022-09-03T11:17:00;101262.92;;;23.22;34.17
59417;BME280;45222;52.458;20.914;2022-09-03T11:20:14;101264.79;;;23.25;34.13
59417;BME280;45222;52.458;20.914;2022-09-03T11:23:36;101259.84;;;23.19;32.31
59417;BME280;45222;52.458;20.914;2022-09-03T11:26:47;101253.69;;;22.94;33.25
59417;BME280;45222;52.458;20.914;2022-09-03T11:29:58;101254.02;;;23.05;33.69
59417;BME280;45222;52.458;20.914;2022-09-03T11:33:07;101258.33;;;23.20;33.68
59417;BME280;45222;52.458;20.914;2022-09-03T11:36:11;101251.59;;;23.06;33.40
59417;BME280;45222;52.458;20.914;2022-09-03T11:39:19;101248.28;;;23.21;33.86
59417;BME280;45222;52.458;20.914;2022-09-03T11:42:29;101244.54;;;23.29;33.90
59417;BME280;45222;52.458;20.914;2022-09-03T11:45:40;101244.98;;;23.55;35.00
59417;BME280;45222;52.458;20.914;2022-09-03T11:48:49;101241.14;;;23.75;32.83
59417;BME280;45222;52.458;20.914;2022-09-03T11:51:58;101239.71;;;23.54;32.80
59417;BME280;45222;52.458;20.914;2022-09-03T11:55:02;101239.77;;;23.38;33.00
59417;BME280;45222;52.458;20.914;2022-09-03T11:58:23;101240.27;;;23.27;33.81
59417;BME280;45222;52.458;20.914;2022-09-03T12:01:28;101240.48;;;23.44;34.08
59417;BME280;45222;52.458;20.914;2022-09-03T12:04:43;101231.86;;;23.43;33.02
59417;BME280;45222;52.458;20.914;2022-09-03T12:08:18;101226.88;;;23.58;32.70
59417;BME280;45222;52.458;20.914;2022-09-03T12:11:38;101220.18;;;23.21;32.03
59417;BME280;45222;52.458;20.914;2022-09-03T12:14:49;101222.30;;;22.90;32.87
59417;BME280;45222;52.458;20.914;2022-09-03T12:18:02;101219.33;;;22.97;32.17
59417;BME280;45222;52.458;20.914;2022-09-03T12:21:20;101212.29;;;23.13;32.78
59417;BME280;45222;52.458;20.914;2022-09-03T12:24:25;101205.98;;;23.46;33.15
59417;BME280;45222;52.458;20.914;2022-09-03T12:27:33;101197.13;;;23.74;31.47
59417;BME280;45222;52.458;20.914;2022-09-03T12:30:37;101192.89;;;23.84;31.06
59417;BME280;45222;52.458;20.914;2022-09-03T12:33:40;101190.55;;;23.84;30.07
59417;BME280;45222;52.458;20.914;2022-09-03T12:36:45;101188.41;;;23.85;31.19
59417;BME280;45222;52.458;20.914;2022-09-03T12:39:53;101183.58;;;24.17;31.87
59417;BME280;45222;52.458;20.914;2022-09-03T12:43:12;101181.18;;;24.54;31.76
59417;BME280;45222;52.458;20.914;2022-09-03T12:46:15;101179.42;;;24.84;31.26
59417;BME280;45222;52.458;20.914;2022-09-03T12:49:22;101175.70;;;25.04;30.63
59417;BME280;45222;52.458;20.914;2022-09-03T12:52:34;101175.71;;;25.08;30.57
59417;BME280;45222;52.458;20.914;2022-09-03T12:55:40;101170.85;;;25.04;29.31
59417;BME280;45222;52.458;20.914;2022-09-03T12:58:50;101169.57;;;24.88;29.54
59417;BME280;45222;52.458;20.914;2022-09-03T13:02:01;101170.83;;;24.71;29.68
59417;BME280;45222;52.458;20.914;2022-09-03T13:05:11;101169.33;;;24.62;29.45
59417;BME280;45222;52.458;20.914;2022-09-03T13:08:19;101163.14;;;24.20;29.47
59417;BME280;45222;52.458;20.914;2022-09-03T13:11:24;101165.15;;;24.10;31.09
59417;BME280;45222;52.458;20.914;2022-09-03T13:14:40;101163.25;;;24.25;30.44
59417;BME280;45222;52.458;20.914;2022-09-03T13:17:55;101159.58;;;24.38;29.85
59417;BME280;45222;52.458;20.914;2022-09-03T13:21:09;101153.02;;;24.48;29.50
59417;BME280;45222;52.458;20.914;2022-09-03T13:24:44;101147.33;;;24.56;29.66
59417;BME280;45222;52.458;20.914;2022-09-03T13:27:58;101143.30;;;24.81;31.08
59417;BME280;45222;52.458;20.914;2022-09-03T13:31:09;101135.39;;;25.00;30.64
59417;BME280;45222;52.458;20.914;2022-09-03T13:34:28;101131.92;;;25.11;29.45
59417;BME280;45222;52.458;20.914;2022-09-03T13:37:38;101131.48;;;25.17;29.49
59417;BME280;45222;52.458;20.914;2022-09-03T13:40:45;101127.80;;;25.30;29.02
59417;BME280;45222;52.458;20.914;2022-09-03T13:43:56;101128.23;;;25.39;28.44
59417;BME280;45222;52.458;20.914;2022-09-03T13:47:01;101124.83;;;25.37;27.58
59417;BME280;45222;52.458;20.914;2022-09-03T13:50:15;101125.66;;;25.27;28.33
59417;BME280;45222;52.458;20.914;2022-09-03T13:53:34;101118.40;;;25.39;29.00
59417;BME280;45222;52.458;20.914;2022-09-03T13:56:48;101123.86;;;25.39;28.18
59417;BME280;45222;52.458;20.914;2022-09-03T13:59:57;101123.58;;;25.05;27.74
59417;BME280;45222;52.458;20.914;2022-09-03T14:03:09;101121.89;;;24.87;28.52
59417;BME280;45222;52.458;20.914;2022-09-03T14:06:32;101121.17;;;25.04;29.57
59417;BME280;45222;52.458;20.914;2022-09-03T14:09:50;101120.71;;;25.10;28.26
59417;BME280;45222;52.458;20.914;2022-09-03T14:13:09;101115.41;;;25.07;27.64
59417;BME280;45222;52.458;20.914;2022-09-03T14:16:25;101120.23;;;25.11;28.33
59417;BME280;45222;52.458;20.914;2022-09-03T14:19:36;101120.59;;;25.19;27.44
59417;BME280;45222;52.458;20.914;2022-09-03T14:22:47;101118.21;;;24.93;28.06
59417;BME280;45222;52.458;20.914;2022-09-03T14:25:54;101121.48;;;24.74;28.20
59417;BME280;45222;52.458;20.914;2022-09-03T14:29:00;101125.13;;;24.39;28.79
59417;BME280;45222;52.458;20.914;2022-09-03T14:32:18;101120.85;;;24.06;29.52
59417;BME280;45222;52.458;20.914;2022-09-03T14:35:35;101120.98;;;23.74;29.18
59417;BME280;45222;52.458;20.914;2022-09-03T14:39:01;101125.45;;;23.39;29.94
59417;BME280;45222;52.458;20.914;2022-09-03T14:42:35;101118.47;;;23.20;30.55
59417;BME280;45222;52.458;20.914;2022-09-03T14:49:39;101108.81;;;23.29;29.37
59417;BME280;45222;52.458;20.914;2022-09-03T14:53:06;101106.10;;;23.49;29.39
59417;BME280;45222;52.458;20.914;2022-09-03T14:56:22;101107.57;;;23.74;29.72
59417;BME280;45222;52.458;20.914;2022-09-03T14:59:46;101105.96;;;23.96;29.58
59417;BME280;45222;52.458;20.914;2022-09-03T15:06:31;101106.64;;;24.31;29.36
59417;BME280;45222;52.458;20.914;2022-09-03T15:09:44;101104.66;;;24.41;29.00
59417;BME280;45222;52.458;20.914;2022-09-03T15:12:51;101104.75;;;24.39;28.61
59417;BME280;45222;52.458;20.914;2022-09-03T15:16:10;101104.14;;;24.38;29.38
59417;BME280;45222;52.458;20.914;2022-09-03T15:19:37;101102.17;;;24.40;29.67
59417;BME280;45222;52.458;20.914;2022-09-03T15:22:56;101102.59;;;24.30;29.33
59417;BME280;45222;52.458;20.914;2022-09-03T15:30:04;101098.02;;;24.10;28.84
59417;BME280;45222;52.458;20.914;2022-09-03T15:33:14;101103.66;;;24.01;29.24
59417;BME280;45222;52.458;20.914;2022-09-03T15:36:22;101108.13;;;23.72;28.94
59417;BME280;45222;52.458;20.914;2022-09-03T15:39:29;101107.67;;;23.45;29.82
59417;BME280;45222;52.458;20.914;2022-09-03T15:42:35;101108.02;;;23.27;30.37
59417;BME280;45222;52.458;20.914;2022-09-03T15:45:40;101110.56;;;23.03;30.31
59417;BME280;45222;52.458;20.914;2022-09-03T15:48:58;101111.50;;;22.67;30.76
59417;BME280;45222;52.458;20.914;2022-09-03T15:52:09;101115.78;;;22.39;32.00
59417;BME280;45222;52.458;20.914;2022-09-03T15:55:25;101112.49;;;22.09;32.27
59417;BME280;45222;52.458;20.914;2022-09-03T15:58:34;101116.65;;;21.81;33.40
59417;BME280;45222;52.458;20.914;2022-09-03T16:01:44;101119.34;;;21.51;33.88
59417;BME280;45222;52.458;20.914;2022-09-03T16:05:03;101122.36;;;21.25;34.40
59417;BME280;45222;52.458;20.914;2022-09-03T16:08:16;101123.70;;;20.99;35.04
59417;BME280;45222;52.458;20.914;2022-09-03T16:11:33;101122.30;;;20.78;35.47
59417;BME280;45222;52.458;20.914;2022-09-03T16:14:41;101124.66;;;20.55;36.61
59417;BME280;45222;52.458;20.914;2022-09-03T16:17:53;101128.61;;;20.37;36.89
59417;BME280;45222;52.458;20.914;2022-09-03T16:21:03;101127.15;;;20.20;37.60
59417;BME280;45222;52.458;20.914;2022-09-03T16:24:16;101125.56;;;20.15;37.81
59417;BME280;45222;52.458;20.914;2022-09-03T16:27:22;101125.58;;;20.10;39.10
59417;BME280;45222;52.458;20.914;2022-09-03T16:30:42;101126.00;;;20.05;40.01
59417;BME280;45222;52.458;20.914;2022-09-03T16:33:53;101129.80;;;20.00;40.80
59417;BME280;45222;52.458;20.914;2022-09-03T16:37:08;101129.13;;;19.94;41.32